Terminal Aerodrome Forecast
Issued by NWS

Home | Current Version | Previous Version | Graphics & Text | Print | Product List | Glossary On
Versions: 1 2 3 4 5 6 7 8 9 10 11 12 13 14 15 16 17 18 19 20 21 22 23 24 25
000
FTUS43 KTOP 221120
TAFMHK
TAF
KMHK 221120Z 2212/2312 07006KT 4SM -FZDZ OVC008
     FM222100 10006KT 3SM -FZRA OVC004
     FM230000 VRB02KT 2SM -FZDZ OVC003
     FM230500 27002KT 6SM BR OVC005=

USA.gov is the U.S. government's official web portal to all federal, state and local government web resources and services.